Time;durP1;ratioP1;P1;durP2;ratioP2;P2;SDS_P1;SDS_P2;PMS_P1;PMS_P2;Temp;Humidity;BMP_temperature;BMP_pressure;BME280_temperature;BME280_humidity;BME280_pressure;Samples;Min_cycle;Max_cycle;Signal;HPM_P1;HPM_P2
2023/05/27 00:01:17;;;;;;;0.03;0.03;;;;;;;-145.06;100.00;93039.88;10349339;28;20061;-78
2023/05/27 00:06:17;;;;;;;0.08;0.08;;;;;;;-145.06;100.00;93013.28;10349546;28;20262;-78
2023/05/27 00:11:17;;;;;;;0.00;0.00;;;;;;;-145.06;100.00;93037.81;10349223;28;20475;-78
2023/05/27 00:16:19;;;;;;;0.00;0.00;;;;;;;-145.06;100.00;93025.56;10347709;28;20061;-79
2023/05/27 00:21:20;;;;;;;0.00;0.00;;;;;;;-145.06;100.00;93050.09;10346421;28;20030;-79
2023/05/27 00:26:20;;;;;;;0.00;0.00;;;;;;;-145.06;100.00;93048.03;10349283;28;20407;-79
2023/05/27 00:31:20;;;;;;;0.00;0.00;;;;;;;-145.06;100.00;93060.31;10349104;28;20297;-79
2023/05/27 00:36:21;;;;;;;0.00;0.00;;;;;;;-145.06;100.00;93052.13;10347135;28;20288;-80
2023/05/27 00:41:22;;;;;;;0.00;0.00;;;;;;;-145.06;100.00;93064.41;10402112;23;20053;-75
2023/05/27 00:46:23;;;;;;;0.00;0.00;;;;;;;-145.06;100.00;93056.22;10449236;28;20036;-75
2023/05/27 00:51:23;;;;;;;0.00;0.00;;;;;;;-145.06;100.00;93080.75;10451165;28;20484;-75
2023/05/27 00:56:25;;;;;;;0.00;0.00;;;;;;;-145.06;100.00;93082.81;10451021;28;20017;-74
2023/05/27 01:01:25;;;;;;;0.00;0.00;;;;;;;-145.06;100.00;93084.84;10442919;28;20039;-75
2023/05/27 01:06:50;;;;;;;0.00;0.00;;;;;;;-145.06;100.00;93072.59;10443746;28;20036;-75
2023/05/27 01:12:16;;;;;;;0.00;0.00;;;;;;;-145.06;100.00;93078.72;10450024;28;20051;-76
2023/05/27 01:17:18;;;;;;;0.00;0.00;;;;;;;-145.06;100.00;93091.00;10445427;28;20079;-75
2023/05/27 01:22:20;;;;;;;0.00;0.00;;;;;;;-145.06;100.00;93086.91;10450138;28;20051;-75
2023/05/27 01:27:20;;;;;;;0.00;0.00;;;;;;;-145.06;100.00;93074.63;10447074;28;20307;-75
2023/05/27 01:32:27;;;;;;;0.00;0.00;;;;;;;-145.06;100.00;93105.31;10440533;28;20017;-75
2023/05/27 01:37:33;;;;;;;0.00;0.00;;;;;;;-145.06;100.00;93101.22;10445500;28;20497;-75
2023/05/27 01:42:39;;;;;;;0.00;0.00;;;;;;;-145.06;100.00;93148.25;10446347;28;20036;-75
2023/05/27 01:47:40;;;;;;;0.00;0.00;;;;;;;-145.06;100.00;93138.03;10443792;28;20106;-75
2023/05/27 01:52:40;;;;;;;0.00;0.00;;;;;;;-145.06;100.00;93121.66;10447569;28;20094;-75
2023/05/27 01:57:40;;;;;;;0.00;0.00;;;;;;;-145.06;100.00;93117.56;10443494;28;20032;-75
2023/05/27 02:02:41;;;;;;;0.00;0.00;;;;;;;-145.06;100.00;93105.31;10444372;28;20486;-75
2023/05/27 02:07:42;;;;;;;0.00;0.00;;;;;;;-145.06;100.00;93095.09;10441218;28;20500;-75
2023/05/27 02:12:42;;;;;;;0.00;0.00;;;;;;;-145.06;100.00;93166.66;10446928;28;20056;-75
2023/05/27 02:17:45;;;;;;;0.00;0.00;;;;;;;-145.06;100.00;93172.78;10445460;28;20027;-75
2023/05/27 02:22:46;;;;;;;0.00;0.00;;;;;;;-145.06;100.00;93152.34;10445100;28;20083;-76
2023/05/27 02:27:52;;;;;;;0.07;0.07;;;;;;;-145.06;100.00;93174.84;10446526;28;20473;-75
2023/05/27 02:32:52;;;;;;;0.00;0.00;;;;;;;-145.06;100.00;93187.13;10442284;28;20485;-75
2023/05/27 02:37:52;;;;;;;0.00;0.00;;;;;;;-145.06;100.00;93158.47;10443759;28;20115;-75
2023/05/27 02:42:52;;;;;;;0.00;0.00;;;;;;;-145.06;100.00;93178.94;10445558;28;20017;-75
2023/05/27 02:47:55;;;;;;;0.00;0.00;;;;;;;-145.06;100.00;93234.16;10455180;28;20020;-75
2023/05/27 02:52:55;;;;;;;0.00;0.00;;;;;;;-145.06;100.00;93244.38;10454089;28;20519;-76
2023/05/27 02:57:55;;;;;;;0.00;0.00;;;;;;;-145.06;100.00;93232.09;10451674;28;20025;-75
2023/05/27 03:02:56;;;;;;;0.00;0.00;;;;;;;-145.06;100.00;93273.00;10451663;28;20277;-75
2023/05/27 03:07:56;;;;;;;0.00;0.00;;;;;;;-145.06;100.00;93232.09;10451246;28;20366;-75
2023/05/27 03:12:56;;;;;;;0.00;0.00;;;;;;;-145.06;100.00;93236.19;10455238;28;20647;-75
2023/05/27 03:17:57;;;;;;;0.00;0.00;;;;;;;-145.06;100.00;93144.16;10450824;28;20166;-75
2023/05/27 03:22:58;;;;;;;0.00;0.00;;;;;;;-145.06;100.00;92821.03;10453624;28;20591;-76
2023/05/27 03:27:58;;;;;;;0.00;0.00;;;;;;;-145.06;100.00;92737.22;10449575;28;20170;-76
2023/05/27 03:32:58;;;;;;;0.00;0.00;;;;;;;-145.06;100.00;92620.66;10453233;28;20326;-76
2023/05/27 03:37:58;;;;;;;0.00;0.00;;;;;;;-145.06;100.00;92583.84;10450917;28;20035;-76
2023/05/27 03:42:59;;;;;;;0.00;0.00;;;;;;;-145.06;100.00;92493.88;10453870;28;20363;-75
2023/05/27 03:47:59;;;;;;;0.00;0.00;;;;;;;-145.06;100.00;92457.06;10453802;28;20017;-75
2023/05/27 03:53:00;;;;;;;0.00;0.00;;;;;;;-145.06;100.00;92332.31;10452440;28;20052;-75
2023/05/27 03:58:00;;;;;;;0.00;0.00;;;;;;;-145.06;100.00;92299.63;10448623;28;20032;-76
2023/05/27 04:03:00;;;;;;;0.00;0.00;;;;;;;-145.06;100.00;92176.94;10451843;28;20032;-76
2023/05/27 04:08:03;;;;;;;0.00;0.00;;;;;;;-145.06;100.00;92025.63;10447759;28;20021;-76
2023/05/27 04:13:03;;;;;;;0.10;0.10;;;;;;;-145.06;100.00;91841.63;10450870;28;20267;-76
2023/05/27 04:18:03;;;;;;;0.10;0.10;;;;;;;-145.06;99.88;91753.72;10450761;28;20028;-76
2023/05/27 04:23:04;;;;;;;0.10;0.10;;;;;;;-145.06;95.41;91649.44;10450404;28;20029;-76
2023/05/27 04:28:05;;;;;;;0.10;0.10;;;;;;;-145.06;94.61;91563.59;10450662;28;20017;-76
2023/05/27 04:33:05;;;;;;;0.10;0.10;;;;;;;-145.06;91.64;91512.47;10448247;28;20729;-76
2023/05/27 04:38:07;;;;;;;0.10;0.10;;;;;;;-145.06;84.80;91373.47;10449765;28;20052;-76
2023/05/27 04:43:07;;;;;;;0.13;0.13;;;;;;;-145.06;84.14;91310.09;10450548;28;20085;-76
2023/05/27 04:48:10;;;;;;;0.10;0.10;;;;;;;-145.06;80.38;91218.13;10451237;28;20021;-76
2023/05/27 04:53:10;;;;;;;0.10;0.10;;;;;;;-145.06;72.38;91103.66;10450330;28;20036;-76
2023/05/27 04:58:10;;;;;;;0.10;0.10;;;;;;;-145.06;67.98;91003.47;10449140;28;20035;-76
2023/05/27 05:03:20;;;;;;;0.00;0.00;;;;;;;-145.06;68.39;91028.00;10450568;28;20519;-76
2023/05/27 05:08:21;;;;;;;0.10;0.10;;;;;;;-145.06;67.42;90976.91;10448150;28;20032;-76
2023/05/27 05:13:21;;;;;;;0.10;0.10;;;;;;;-145.06;66.69;90942.16;10449238;28;20040;-76
2023/05/27 05:18:21;;;;;;;0.10;0.10;;;;;;;-145.06;64.38;90872.66;10448508;28;20032;-76
2023/05/27 05:23:22;;;;;;;0.10;0.10;;;;;;;-145.06;64.88;90809.31;10449500;28;20021;-76
2023/05/27 05:28:23;;;;;;;0.10;0.10;;;;;;;-145.06;61.71;90807.25;10447595;28;20532;-76
2023/05/27 05:33:23;;;;;;;0.10;0.10;;;;;;;-145.06;61.52;90760.25;10447220;28;20028;-76
2023/05/27 05:38:23;;;;;;;0.03;0.03;;;;;;;-145.06;61.41;90778.66;10448060;28;20025;-76
2023/05/27 05:43:23;;;;;;;0.00;0.00;;;;;;;-145.06;62.15;90768.44;10447626;28;20029;-76
2023/05/27 05:48:24;;;;;;;0.00;0.00;;;;;;;-145.06;61.60;90772.50;10447941;28;20021;-76
2023/05/27 05:53:24;;;;;;;0.03;0.03;;;;;;;-145.06;60.47;90651.94;10449261;28;20056;-76
2023/05/27 05:58:24;;;;;;;0.00;0.00;;;;;;;-145.06;59.71;90647.84;10448009;28;20066;-76
2023/05/27 06:03:25;;;;;;;0.00;0.00;;;;;;;-145.06;57.38;90586.53;10448235;28;20028;-76
2023/05/27 06:08:25;;;;;;;0.00;0.00;;;;;;;-145.06;58.86;90625.34;10447639;28;20093;-76
2023/05/27 06:13:25;;;;;;;0.00;0.00;;;;;;;-145.06;56.43;90533.38;10446759;28;20020;-76
2023/05/27 06:18:26;;;;;;;0.10;0.10;;;;;;;-145.06;55.85;90451.63;10447195;28;20025;-76
2023/05/27 06:23:26;;;;;;;0.00;0.00;;;;;;;-145.06;53.82;90373.97;10446712;28;20477;-77
2023/05/27 06:28:26;;;;;;;0.10;0.10;;;;;;;-145.06;52.17;90390.31;10447683;28;20040;-77
2023/05/27 06:33:26;;;;;;;0.00;0.00;;;;;;;-145.06;54.77;90365.78;10448122;28;20041;-77
2023/05/27 06:38:27;;;;;;;0.00;0.00;;;;;;;-145.06;50.56;90308.56;10441932;28;20025;-77
2023/05/27 06:43:28;;;;;;;0.10;0.10;;;;;;;-145.06;51.89;90310.63;10445967;28;20053;-77
2023/05/27 06:48:28;;;;;;;0.00;0.00;;;;;;;-145.06;52.65;90247.25;10444698;28;20025;-77
2023/05/27 06:53:28;;;;;;;0.10;0.10;;;;;;;-145.06;49.52;90222.72;10447528;28;20029;-77
2023/05/27 06:58:29;;;;;;;0.00;0.00;;;;;;;-145.06;48.77;90208.44;10444309;28;20025;-77
2023/05/27 07:03:29;;;;;;;0.10;0.10;;;;;;;-145.06;49.37;90210.47;10441612;28;20024;-77
2023/05/27 07:08:29;;;;;;;0.10;0.10;;;;;;;-145.06;48.54;90226.81;10441697;28;20029;-77
2023/05/27 07:13:30;;;;;;;0.10;0.10;;;;;;;-145.06;48.77;90210.47;10444441;28;20028;-77
2023/05/27 07:18:30;;;;;;;0.10;0.10;;;;;;;-145.06;50.43;90218.66;10446454;28;20033;-77
2023/05/27 07:23:30;;;;;;;0.00;0.00;;;;;;;-145.06;48.22;90163.47;10446219;28;20523;-77
2023/05/27 07:28:32;;;;;;;0.00;0.00;;;;;;;-145.06;48.66;90145.06;10439304;28;20021;-77
2023/05/27 07:33:32;;;;;;;0.10;0.10;;;;;;;-145.06;48.01;90120.56;10449061;28;20029;-77
2023/05/27 07:38:32;;;;;;;0.10;0.10;;;;;;;-145.06;47.60;90102.16;10448891;28;20123;-77
2023/05/27 07:43:33;;;;;;;0.00;0.00;;;;;;;-145.06;46.16;90032.69;10453715;28;20059;-77
2023/05/27 07:48:33;;;;;;;0.10;0.10;;;;;;;-145.06;46.66;90087.84;10453837;28;20029;-77
2023/05/27 07:53:34;;;;;;;0.03;0.03;;;;;;;-145.06;46.68;90016.34;10447160;28;20312;-77
2023/05/27 07:58:34;;;;;;;0.10;0.10;;;;;;;-145.06;45.54;90014.28;10448667;28;20032;-77
2023/05/27 08:03:35;;;;;;;0.10;0.10;;;;;;;-145.06;46.01;89993.84;10449330;28;20268;-76
2023/05/27 08:08:35;;;;;;;0.10;0.10;;;;;;;-145.06;46.08;90069.47;10451024;28;20036;-76
2023/05/27 08:13:35;;;;;;;0.10;0.10;;;;;;;-145.06;46.38;90034.72;10450745;28;20096;-77
2023/05/27 08:18:37;;;;;;;0.10;0.10;;;;;;;-145.06;46.81;90106.25;10448594;28;20035;-77
2023/05/27 08:23:37;;;;;;;0.00;0.00;;;;;;;-145.06;47.65;90067.41;10446392;28;20111;-77
2023/05/27 08:28:37;;;;;;;0.10;0.10;;;;;;;-145.06;45.87;90112.38;10451201;28;20043;-77
2023/05/27 08:33:37;;;;;;;0.00;0.00;;;;;;;-145.06;47.31;90089.91;10450693;28;20045;-77
2023/05/27 08:38:38;;;;;;;0.03;0.03;;;;;;;-145.06;47.49;90108.28;10451491;28;20021;-77
2023/05/27 08:43:38;;;;;;;0.00;0.00;;;;;;;-145.06;51.13;90181.88;10451741;28;20027;-76
2023/05/27 08:48:40;;;;;;;0.00;0.00;;;;;;;-145.06;50.16;90059.25;10446069;28;20720;-76
2023/05/27 08:53:40;;;;;;;0.00;0.00;;;;;;;-145.06;49.57;90051.06;10448171;28;20029;-76
2023/05/27 08:58:41;;;;;;;0.10;0.10;;;;;;;-145.06;45.37;89908.03;10447818;28;20024;-75
2023/05/27 09:03:42;;;;;;;0.10;0.10;;;;;;;-145.06;44.68;89912.13;10450883;28;20114;-75
2023/05/27 09:08:42;;;;;;;0.00;0.00;;;;;;;-145.06;47.17;89916.19;10448791;28;20070;-76
2023/05/27 09:13:42;;;;;;;0.00;0.00;;;;;;;-145.06;43.44;89846.72;10450386;28;20036;-75
2023/05/27 09:18:43;;;;;;;0.00;0.00;;;;;;;-145.06;46.29;89910.06;10448905;28;20033;-76
2023/05/27 09:23:43;;;;;;;0.10;0.10;;;;;;;-145.06;43.27;89777.25;10448680;28;20020;-76
2023/05/27 09:28:44;;;;;;;0.00;0.00;;;;;;;-145.06;43.95;89877.38;10443097;28;20070;-76
2023/05/27 09:33:45;;;;;;;0.10;0.10;;;;;;;-145.06;41.63;89734.34;10449899;28;20025;-76
2023/05/27 09:38:45;;;;;;;0.00;0.00;;;;;;;-145.06;43.65;89762.94;10447974;28;20039;-76
2023/05/27 09:43:54;;;;;;;0.10;0.10;;;;;;;-145.06;40.00;89685.28;10447030;28;20087;-76
2023/05/27 09:48:54;;;;;;;0.00;0.00;;;;;;;-145.06;43.70;90590.59;10449077;28;20017;-76
2023/05/27 09:53:58;;;;;;;0.10;0.10;;;;;;;-145.06;44.30;89948.91;10449004;28;20043;-76
2023/05/27 09:59:00;;;;;;;0.10;0.10;;;;;;;-145.06;42.22;89910.06;10448379;28;20025;-76
2023/05/27 10:04:03;;;;;;;0.10;0.10;;;;;;;-145.06;41.90;89957.06;10446648;28;20024;-76
2023/05/27 10:09:03;;;;;;;0.10;0.10;;;;;;;-145.06;42.01;89979.53;10444921;28;20261;-76
2023/05/27 10:14:04;;;;;;;0.10;0.10;;;;;;;-145.06;47.54;90124.63;10450579;28;20027;-76
2023/05/27 10:19:10;;;;;;;0.10;0.10;;;;;;;-145.06;43.57;90014.28;10446095;28;20029;-76
2023/05/27 10:24:12;;;;;;;0.10;0.10;;;;;;;-145.06;43.42;90055.16;10444191;28;20102;-76
2023/05/27 10:29:14;;;;;;;0.00;0.00;;;;;;;-145.06;44.10;90112.38;10438789;28;20025;-75
2023/05/27 10:34:15;;;;;;;0.00;0.00;;;;;;;-145.06;44.62;90110.34;10445405;28;20053;-75
2023/05/27 10:39:17;;;;;;;0.10;0.10;;;;;;;-145.06;41.58;90202.31;10445388;28;20528;-76
2023/05/27 10:44:28;;;;;;;0.03;0.03;;;;;;;-145.06;42.98;90284.03;10447124;28;20041;-76
2023/05/27 10:49:35;;;;;;;0.10;0.10;;;;;;;-145.06;44.47;90363.75;10443630;28;20029;-76
2023/05/27 10:54:37;;;;;;;0.00;0.00;;;;;;;-145.06;45.14;90337.19;10447218;28;20028;-76
2023/05/27 10:59:47;;;;;;;0.00;0.00;;;;;;;-145.06;42.88;90271.78;10445415;28;20162;-76
2023/05/27 11:04:48;;;;;;;0.10;0.10;;;;;;;-145.06;44.38;90251.34;10449490;28;20056;-76
2023/05/27 11:09:51;;;;;;;0.00;0.00;;;;;;;-145.06;42.65;90251.34;10454642;28;20434;-76
2023/05/27 11:14:54;;;;;;;0.10;0.10;;;;;;;-145.06;43.49;90279.97;10455356;28;20033;-75
2023/05/27 11:19:55;;;;;;;0.00;0.00;;;;;;;-145.06;41.47;90275.88;10454692;28;20037;-76
2023/05/27 11:25:00;;;;;;;0.00;0.00;;;;;;;-145.06;44.32;90345.34;10454444;28;20413;-76
2023/05/27 11:30:03;;;;;;;0.00;0.00;;;;;;;-145.06;41.97;90308.56;10453242;28;20016;-76
2023/05/27 11:35:05;;;;;;;0.10;0.10;;;;;;;-145.06;43.21;90359.66;10453038;28;20083;-76
2023/05/27 11:40:15;;;;;;;0.10;0.10;;;;;;;-145.06;46.10;90400.53;10452777;28;20041;-76
2023/05/27 11:45:20;;;;;;;0.00;0.00;;;;;;;-145.06;41.08;90580.38;10454167;28;20027;-76
2023/05/27 11:50:21;;;;;;;0.00;0.00;;;;;;;-145.06;43.49;90631.47;10452104;28;20385;-76
2023/05/27 11:55:22;;;;;;;0.00;0.00;;;;;;;-145.06;43.48;90451.63;10453537;28;20020;-76
2023/05/27 12:00:23;;;;;;;0.00;0.00;;;;;;;-145.06;41.50;90619.22;10448151;28;20370;-76
2023/05/27 12:05:23;;;;;;;0.00;0.00;;;;;;;-145.06;43.05;90533.38;10454514;28;20100;-76
2023/05/27 12:10:23;;;;;;;0.00;0.00;;;;;;;-145.06;43.07;90531.34;10453650;28;20096;-76
2023/05/27 12:15:26;;;;;;;0.00;0.00;;;;;;;-145.06;44.12;90586.53;10452794;28;20021;-76
2023/05/27 12:20:28;;;;;;;0.00;0.00;;;;;;;-145.06;43.16;90533.38;10453517;28;20695;-75
2023/05/27 12:25:28;;;;;;;0.00;0.00;;;;;;;-145.06;45.27;90570.16;10450431;28;20410;-75
2023/05/27 12:30:29;;;;;;;0.10;0.10;;;;;;;-145.06;42.10;90472.06;10450003;28;20028;-75
2023/05/27 12:35:30;;;;;;;0.03;0.03;;;;;;;-145.06;44.80;90572.22;10450093;28;20029;-75
2023/05/27 12:40:30;;;;;;;0.00;0.00;;;;;;;-145.06;43.65;90580.38;10447922;28;20033;-75
2023/05/27 12:45:31;;;;;;;0.00;0.00;;;;;;;-145.06;41.77;90490.47;10435045;23;20628;-77
2023/05/27 12:50:31;;;;;;;0.00;0.00;;;;;;;-145.06;43.01;90545.66;10414466;28;20022;-76
2023/05/27 12:55:31;;;;;;;0.00;0.00;;;;;;;-145.06;43.03;90566.09;10410023;28;20752;-77
2023/05/27 13:00:34;;;;;;;0.00;0.00;;;;;;;-145.06;45.21;90635.56;10412872;28;20082;-77
2023/05/27 13:05:34;;;;;;;0.00;0.00;;;;;;;-145.06;46.54;90660.09;10423570;28;20049;-77
2023/05/27 13:10:34;;;;;;;0.00;0.00;;;;;;;-145.06;48.27;90609.00;10423240;28;20315;-77
2023/05/27 13:15:35;;;;;;;0.00;0.00;;;;;;;-145.06;44.36;90541.56;10421681;28;20037;-77
2023/05/27 13:20:35;;;;;;;0.00;0.00;;;;;;;-145.06;46.40;90584.47;10420225;28;20022;-77
2023/05/27 13:25:35;;;;;;;0.00;0.00;;;;;;;-145.06;46.42;90611.03;10418859;28;20033;-76
2023/05/27 13:30:36;;;;;;;0.00;0.00;;;;;;;-145.06;44.58;90533.38;10420209;28;20075;-74
2023/05/27 13:35:36;;;;;;;0.07;0.07;;;;;;;-145.06;47.16;90617.19;10426802;28;20045;-75
2023/05/27 13:40:36;;;;;;;0.00;0.00;;;;;;;-145.06;46.63;90598.78;10420327;28;20117;-75
2023/05/27 13:45:37;;;;;;;0.00;0.00;;;;;;;-145.06;45.32;90557.91;10424483;28;20336;-76
2023/05/27 13:50:37;;;;;;;0.00;0.00;;;;;;;-145.06;46.68;90598.78;10414171;28;20030;-77
2023/05/27 13:55:37;;;;;;;0.00;0.00;;;;;;;-145.06;46.67;90521.13;10423043;28;20055;-76
2023/05/27 14:00:38;;;;;;;0.00;0.00;;;;;;;-145.06;47.24;90570.16;10421305;28;20482;-76
2023/05/27 14:05:38;;;;;;;0.00;0.00;;;;;;;-145.06;46.13;90533.38;10435763;28;20545;-75
2023/05/27 14:10:39;;;;;;;0.00;0.00;;;;;;;-145.06;47.29;90574.25;10430263;28;20017;-78
2023/05/27 14:15:39;;;;;;;0.00;0.00;;;;;;;-145.06;43.59;90478.19;10417913;28;20040;-77
2023/05/27 14:20:40;;;;;;;0.00;0.00;;;;;;;-145.06;45.53;90527.25;10422863;28;20036;-76
2023/05/27 14:25:40;;;;;;;0.00;0.00;;;;;;;-145.06;46.43;90555.88;10424634;28;20406;-77
2023/05/27 14:30:41;;;;;;;0.00;0.00;;;;;;;-145.06;44.24;90463.88;10414166;28;20393;-77
2023/05/27 14:35:41;;;;;;;0.00;0.00;;;;;;;-145.06;44.29;90484.34;10420059;28;20496;-75
2023/05/27 14:40:43;;;;;;;0.00;0.00;;;;;;;-145.06;45.61;90482.28;10417079;28;20057;-77
2023/05/27 14:45:43;;;;;;;0.00;0.00;;;;;;;-145.06;44.23;90484.34;10417406;28;20037;-75
2023/05/27 14:50:44;;;;;;;0.00;0.00;;;;;;;-145.06;44.95;90474.13;10423600;28;20100;-75
2023/05/27 14:55:44;;;;;;;0.00;0.00;;;;;;;-145.06;44.29;90500.69;10418625;28;20076;-76
2023/05/27 15:00:45;;;;;;;0.10;0.10;;;;;;;-145.06;42.84;90441.41;10418762;28;20021;-76
2023/05/27 15:05:45;;;;;;;0.10;0.10;;;;;;;-145.06;45.30;90484.34;10418222;28;20067;-77
2023/05/27 15:10:45;;;;;;;0.00;0.00;;;;;;;-145.06;45.50;90494.56;10412013;28;20021;-77
2023/05/27 15:15:46;;;;;;;0.10;0.10;;;;;;;-145.06;44.12;90447.53;10418511;28;20085;-77
2023/05/27 15:20:46;;;;;;;0.00;0.00;;;;;;;-145.06;43.64;90484.34;10435066;28;20032;-76
2023/05/27 15:25:46;;;;;;;0.00;0.00;;;;;;;-145.06;44.17;90515.00;10407794;28;20025;-77
2023/05/27 15:30:47;;;;;;;0.00;0.00;;;;;;;-145.06;45.40;90606.97;10416572;28;20599;-77
2023/05/27 15:35:48;;;;;;;0.00;0.00;;;;;;;-145.06;45.88;90602.88;10417415;28;20432;-77
2023/05/27 15:40:48;;;;;;;0.10;0.10;;;;;;;-145.06;46.45;90639.66;10413266;28;20992;-75
2023/05/27 15:45:49;;;;;;;0.10;0.10;;;;;;;-145.06;45.22;90627.41;10415301;28;20061;-75
2023/05/27 15:50:50;;;;;;;0.00;0.00;;;;;;;-145.06;46.03;90637.63;10415236;28;20071;-75
2023/05/27 15:55:50;;;;;;;0.00;0.00;;;;;;;-145.06;46.07;90672.38;10426357;28;20036;-77
2023/05/27 16:00:51;;;;;;;0.00;0.00;;;;;;;-145.06;46.42;90668.28;10419084;28;20359;-77
2023/05/27 16:05:51;;;;;;;0.10;0.10;;;;;;;-145.06;47.23;90729.59;10419073;28;20521;-76
2023/05/27 16:10:53;;;;;;;0.08;0.08;;;;;;;-145.06;47.46;90729.59;10413850;28;20022;-77
2023/05/27 16:15:55;;;;;;;0.10;0.10;;;;;;;-145.06;46.18;90741.84;10421142;28;20058;-76
2023/05/27 16:20:56;;;;;;;0.00;0.00;;;;;;;-145.06;47.37;90756.16;10418765;28;20053;-76
2023/05/27 16:25:57;;;;;;;0.00;0.00;;;;;;;-145.06;47.16;90766.38;10413787;28;20029;-76
2023/05/27 16:30:59;;;;;;;0.00;0.00;;;;;;;-145.06;47.98;90803.16;10412713;28;20018;-76
2023/05/27 16:35:59;;;;;;;0.00;0.00;;;;;;;-145.06;47.62;90786.81;10411009;28;20124;-76
2023/05/27 16:40:59;;;;;;;0.00;0.00;;;;;;;-145.06;46.72;90905.38;10409093;28;20538;-76
2023/05/27 16:46:00;;;;;;;0.00;0.00;;;;;;;-145.06;47.01;91038.22;10406407;28;20041;-76
2023/05/27 16:51:01;;;;;;;0.00;0.00;;;;;;;-145.06;48.33;91144.53;10412694;28;20017;-76
2023/05/27 16:56:03;;;;;;;0.00;0.00;;;;;;;-145.06;48.54;91179.28;10411356;28;20021;-74
2023/05/27 17:01:03;;;;;;;0.10;0.10;;;;;;;-145.06;49.26;91205.84;10413482;28;20047;-77
2023/05/27 17:06:03;;;;;;;0.00;0.00;;;;;;;-145.06;49.97;91230.38;10427830;28;20045;-77
2023/05/27 17:11:04;;;;;;;0.00;0.00;;;;;;;-145.06;51.47;91330.53;10423102;28;20276;-78
2023/05/27 17:16:05;;;;;;;0.00;0.00;;;;;;;-145.06;49.63;91322.38;10424498;28;20458;-78
2023/05/27 17:21:05;;;;;;;0.10;0.10;;;;;;;-145.06;49.99;91306.00;10418346;28;20045;-76
2023/05/27 17:26:06;;;;;;;0.00;0.00;;;;;;;-145.06;51.19;91330.53;10424781;28;20049;-78
2023/05/27 17:31:06;;;;;;;0.10;0.10;;;;;;;-145.06;51.21;91373.47;10414569;28;20063;-77
2023/05/27 17:36:06;;;;;;;0.10;0.10;;;;;;;-145.06;50.88;91371.44;10424187;28;20398;-77
2023/05/27 17:41:09;;;;;;;0.00;0.00;;;;;;;-145.06;52.30;91404.13;10422961;28;20030;-78
2023/05/27 17:46:12;;;;;;;0.10;0.10;;;;;;;-145.06;54.65;91426.63;10422361;28;20496;-78
2023/05/27 17:51:12;;;;;;;0.03;0.03;;;;;;;-145.06;54.93;91467.50;10422800;28;20365;-78
2023/05/27 17:56:12;;;;;;;0.00;0.00;;;;;;;-145.06;55.91;91473.63;10421715;28;20021;-78
2023/05/27 18:01:13;;;;;;;0.00;0.00;;;;;;;-145.06;56.52;91498.16;10421659;28;20020;-78
2023/05/27 18:06:13;;;;;;;0.05;0.05;;;;;;;-145.06;56.83;91510.44;10421804;28;20437;-78
2023/05/27 18:11:13;;;;;;;0.00;0.00;;;;;;;-145.06;56.87;91551.31;10421263;28;20056;-76
2023/05/27 18:16:14;;;;;;;0.10;0.10;;;;;;;-145.06;58.05;91592.22;10420663;28;20052;-75
2023/05/27 18:21:14;;;;;;;0.10;0.10;;;;;;;-145.06;60.31;91600.38;10423032;28;20035;-76
2023/05/27 18:26:15;;;;;;;0.10;0.10;;;;;;;-145.06;61.24;91678.06;10420648;28;20744;-77
2023/05/27 18:31:15;;;;;;;0.03;0.03;;;;;;;-145.06;61.99;91684.22;10422454;28;20014;-76
2023/05/27 18:36:15;;;;;;;0.00;0.00;;;;;;;-145.06;63.75;91716.91;10412892;28;20071;-76
2023/05/27 18:41:15;;;;;;;0.10;0.10;;;;;;;-145.06;64.50;91768.03;10422689;28;20072;-77
2023/05/27 18:46:16;;;;;;;0.10;0.10;;;;;;;-145.06;66.52;91757.81;10419221;28;20050;-78
2023/05/27 18:51:16;;;;;;;0.00;0.00;;;;;;;-145.06;67.62;91849.81;10416325;28;20081;-77
2023/05/27 18:56:17;;;;;;;0.10;0.10;;;;;;;-145.06;68.63;91833.44;10404409;28;20075;-76
2023/05/27 19:01:17;;;;;;;0.00;0.00;;;;;;;-145.06;69.75;91857.97;10410190;28;20073;-77
2023/05/27 19:06:18;;;;;;;0.00;0.00;;;;;;;-145.06;69.22;91874.34;10410318;28;20405;-77
2023/05/27 19:11:18;;;;;;;0.10;0.10;;;;;;;-145.06;69.49;91874.34;10410550;28;20040;-77
2023/05/27 19:16:19;;;;;;;0.10;0.10;;;;;;;-145.06;70.57;91896.81;10410390;28;20504;-76
2023/05/27 19:21:19;;;;;;;0.00;0.00;;;;;;;-145.06;71.24;91915.22;10406426;28;20437;-74
2023/05/27 19:26:19;;;;;;;0.10;0.10;;;;;;;-145.06;71.46;91945.91;10408442;28;20376;-75
2023/05/27 19:31:19;;;;;;;0.10;0.10;;;;;;;-145.06;72.37;91937.72;10417311;28;20021;-75
2023/05/27 19:36:20;;;;;;;0.10;0.10;;;;;;;-145.06;73.22;91988.84;10414138;28;20112;-76
2023/05/27 19:41:20;;;;;;;0.10;0.10;;;;;;;-145.06;74.30;92017.47;10413233;28;20064;-75
2023/05/27 19:46:20;;;;;;;0.10;0.10;;;;;;;-145.06;74.97;92027.69;10420225;28;20025;-76
2023/05/27 19:51:21;;;;;;;0.10;0.10;;;;;;;-145.06;76.03;92062.44;10414543;28;20626;-76
2023/05/27 19:56:23;;;;;;;0.10;0.10;;;;;;;-145.06;77.41;92050.16;10416625;28;20025;-76
2023/05/27 20:01:23;;;;;;;0.20;0.20;;;;;;;-145.06;80.19;92074.69;10413071;28;20025;-74
2023/05/27 20:06:23;;;;;;;0.10;0.10;;;;;;;-145.06;83.40;92140.13;10415971;28;20032;-75
2023/05/27 20:11:24;;;;;;;0.10;0.10;;;;;;;-145.06;85.12;92066.53;10400969;28;20021;-76
2023/05/27 20:16:25;;;;;;;0.10;0.10;;;;;;;-145.06;88.89;92166.72;10406169;28;20021;-77
2023/05/27 20:21:25;;;;;;;0.10;0.10;;;;;;;-145.06;92.27;92154.44;10409673;28;20339;-77
2023/05/27 20:26:25;;;;;;;0.10;0.10;;;;;;;-145.06;94.87;92193.28;10413711;28;20025;-77
2023/05/27 20:31:26;;;;;;;0.10;0.10;;;;;;;-145.06;98.76;92254.63;10417892;28;20013;-77
2023/05/27 20:36:26;;;;;;;0.10;0.10;;;;;;;-145.06;99.73;92234.19;10413101;28;20017;-77
2023/05/27 20:41:26;;;;;;;0.10;0.10;;;;;;;-145.06;100.00;92266.91;10413106;28;20025;-77
2023/05/27 20:46:28;;;;;;;0.10;0.10;;;;;;;-145.06;100.00;92285.31;10414218;28;20028;-77
2023/05/27 20:51:28;;;;;;;0.10;0.10;;;;;;;-145.06;100.00;92297.56;10411004;28;20260;-76
2023/05/27 20:56:28;;;;;;;0.00;0.00;;;;;;;-145.06;100.00;92299.63;10420267;28;20040;-76
2023/05/27 21:01:29;;;;;;;0.10;0.10;;;;;;;-145.06;100.00;92342.56;10410907;28;20364;-76
2023/05/27 21:06:30;;;;;;;0.10;0.10;;;;;;;-145.06;100.00;92348.69;10408679;28;20044;-76
2023/05/27 21:11:30;;;;;;;0.10;0.10;;;;;;;-145.06;100.00;92367.09;10407035;28;20040;-76
2023/05/27 21:16:30;;;;;;;0.10;0.10;;;;;;;-145.06;100.00;92455.00;10403721;28;20022;-76
2023/05/27 21:21:31;;;;;;;0.10;0.10;;;;;;;-145.06;100.00;92436.63;10408311;28;20346;-76
2023/05/27 21:26:31;;;;;;;0.10;0.10;;;;;;;-145.06;100.00;92465.25;10407301;28;20060;-76
2023/05/27 21:31:33;;;;;;;0.10;0.10;;;;;;;-145.06;100.00;92483.63;10410566;28;20079;-76
2023/05/27 21:36:33;;;;;;;0.10;0.10;;;;;;;-145.06;100.00;92504.09;10408485;28;20601;-76
2023/05/27 21:41:33;;;;;;;0.10;0.10;;;;;;;-145.06;100.00;92485.69;10406147;28;20028;-76
2023/05/27 21:46:34;;;;;;;0.10;0.10;;;;;;;-145.06;100.00;92530.66;10408565;28;20371;-77
2023/05/27 21:51:35;;;;;;;0.00;0.00;;;;;;;-145.06;100.00;92528.63;10407733;28;20029;-75
2023/05/27 21:56:35;;;;;;;0.00;0.00;;;;;;;-145.06;100.00;92502.03;10410069;28;20466;-77
2023/05/27 22:01:35;;;;;;;0.10;0.10;;;;;;;-145.06;100.00;92506.13;10407149;28;20025;-77
2023/05/27 22:06:40;;;;;;;0.10;0.10;;;;;;;-145.06;100.00;92526.59;10409356;28;20030;-77
2023/05/27 22:11:40;;;;;;;0.00;0.00;;;;;;;-145.06;100.00;92500.00;10402026;28;20498;-77
2023/05/27 22:16:42;;;;;;;0.00;0.00;;;;;;;-145.06;100.00;92528.63;10404554;28;20029;-77
2023/05/27 22:21:42;;;;;;;0.10;0.10;;;;;;;-145.06;100.00;92549.06;10404117;28;20017;-74
2023/05/27 22:26:42;;;;;;;0.05;0.05;;;;;;;-145.06;100.00;92612.47;10403501;28;20129;-74
2023/05/27 22:31:42;;;;;;;0.10;0.10;;;;;;;-145.06;100.00;92581.78;10385743;28;20048;-75
2023/05/27 22:36:43;;;;;;;0.00;0.00;;;;;;;-145.06;100.00;92598.16;10390290;28;20509;-76
2023/05/27 22:41:44;;;;;;;0.10;0.10;;;;;;;-145.06;100.00;92600.19;10408344;28;20558;-77